LFBA/AGF METAR and TAF weather

Enter ICAO airport designator
Station Type Date Time Source
LFBA METAR 2020/01/24 21:00 UTC NOAA

LFBA 242100Z AUTO 10006KT 5000 BR NSC 05/04 Q1020 BECMG BKN002


Station Type Date Time Source
LFBA Decoded METAR 2020/01/24 21:00 UTC NOAA

Agen, France (LFBA) 44-11N 000-36E 60M
Jan 24, 2020 - 04:00 PM EST / 2020.01.24 2100 UTC
Wind: from the E (100 degrees) at 7 MPH (6 KT):0
Visibility: 3 mile(s):0
Weather: mist
Temperature: 41 F (5 C)
Dew Point: 39 F (4 C)
Relative Humidity: 93%
Pressure (altimeter): 30.12 in. Hg (1020 hPa)
ob: LFBA 242100Z AUTO 10006KT 5000 BR NSC 05/04 Q1020 BECMG BKN002
cycle: 21

Station Type Date Time Source
LFBA TAF 2014/12/22 20:03 UTC NOAA

TAF
AMD TAF
AMD LFBA 222037Z 2220/2224 12007KT 0400 FG VV///
TEMPO 2220/2224 0100 PROB30
TEMPO 2222/2224 FZFG

Example: see airport list